Avonlea, Canada
Current Conditions -  °F | °C
As of 9:00 AM on Sunday 23 Nov 2014 (Local Time) from CYQR Reporting Station
Blowing Snow Blowing Snow  
Wind Chill: -9°   Ceiling: 3700
Heat Index: 10°   Visibility: 2mi
Dew Point:   Wind: 21mph
Humidity: 92%   Direction: 330°NNW
Pressure: 29.69"   Gusts: 26mph
Location:  50.02°N, 105.07°W
Report Text: CYQR 231500Z 33018G23KT 2SM -SHSN BR DRSN FEW015 OVC037 M12/M13 A2969 RMK SC2SC6 VIS VRB 11/2-21/2 PRESRR SLP087
Loading
Personal Weather Stations






























Interactive Weather Map New forecast layout! Learn more

10-Day Weather Forecast

Advertisements
Track Severe Weather on mobile